sensor_id;sensor_type;location;lat;lon;timestamp;temperature;humidity
27781;DHT22;15167;1.318;103.762;2023-03-15T00:00:20;24.10;1.00
27781;DHT22;15167;1.318;103.762;2023-03-15T00:02:46;24.10;1.00
27781;DHT22;15167;1.318;103.762;2023-03-15T00:05:13;24.20;1.00
27781;DHT22;15167;1.318;103.762;2023-03-15T00:07:39;24.20;1.00
27781;DHT22;15167;1.318;103.762;2023-03-15T00:10:05;24.20;1.00
27781;DHT22;15167;1.318;103.762;2023-03-15T00:12:32;24.30;1.00
27781;DHT22;15167;1.318;103.762;2023-03-15T00:14:59;24.30;1.00
27781;DHT22;15167;1.318;103.762;2023-03-15T00:17:25;24.30;1.00
27781;DHT22;15167;1.318;103.762;2023-03-15T00:19:51;24.30;99.90
27781;DHT22;15167;1.318;103.762;2023-03-15T00:22:17;24.30;99.90
27781;DHT22;15167;1.318;103.762;2023-03-15T00:24:43;24.40;99.90
27781;DHT22;15167;1.318;103.762;2023-03-15T00:27:09;24.40;99.90
27781;DHT22;15167;1.318;103.762;2023-03-15T00:29:36;24.40;99.90
27781;DHT22;15167;1.318;103.762;2023-03-15T00:32:02;24.40;99.90
27781;DHT22;15167;1.318;103.762;2023-03-15T00:34:28;24.50;99.90
27781;DHT22;15167;1.318;103.762;2023-03-15T00:36:54;24.60;99.90
27781;DHT22;15167;1.318;103.762;2023-03-15T00:39:20;24.60;99.90
27781;DHT22;15167;1.318;103.762;2023-03-15T00:41:46;24.60;99.90
27781;DHT22;15167;1.318;103.762;2023-03-15T00:44:12;24.70;99.90
27781;DHT22;15167;1.318;103.762;2023-03-15T00:46:39;24.80;99.90
27781;DHT22;15167;1.318;103.762;2023-03-15T00:49:05;24.80;99.90
27781;DHT22;15167;1.318;103.762;2023-03-15T00:51:31;24.80;99.90
27781;DHT22;15167;1.318;103.762;2023-03-15T00:53:58;25.00;99.90
27781;DHT22;15167;1.318;103.762;2023-03-15T00:56:25;25.00;99.90
27781;DHT22;15167;1.318;103.762;2023-03-15T00:58:52;25.10;99.90
27781;DHT22;15167;1.318;103.762;2023-03-15T01:01:19;25.20;99.90
27781;DHT22;15167;1.318;103.762;2023-03-15T01:03:45;25.20;99.90
27781;DHT22;15167;1.318;103.762;2023-03-15T01:06:16;25.20;99.90
27781;DHT22;15167;1.318;103.762;2023-03-15T01:08:43;25.30;99.90
27781;DHT22;15167;1.318;103.762;2023-03-15T01:11:10;25.30;99.90
27781;DHT22;15167;1.318;103.762;2023-03-15T01:13:37;25.30;99.90
27781;DHT22;15167;1.318;103.762;2023-03-15T01:16:03;25.40;99.90
27781;DHT22;15167;1.318;103.762;2023-03-15T01:18:29;25.40;99.90
27781;DHT22;15167;1.318;103.762;2023-03-15T01:20:56;25.40;99.90
27781;DHT22;15167;1.318;103.762;2023-03-15T01:23:22;25.50;99.90
27781;DHT22;15167;1.318;103.762;2023-03-15T01:25:48;25.60;99.90
27781;DHT22;15167;1.318;103.762;2023-03-15T01:28:14;25.70;99.90
27781;DHT22;15167;1.318;103.762;2023-03-15T01:30:47;25.70;95.60
27781;DHT22;15167;1.318;103.762;2023-03-15T01:33:13;25.70;82.30
27781;DHT22;15167;1.318;103.762;2023-03-15T01:35:39;25.70;92.90
27781;DHT22;15167;1.318;103.762;2023-03-15T01:38:06;25.80;71.70
27781;DHT22;15167;1.318;103.762;2023-03-15T01:40:32;25.80;53.70
27781;DHT22;15167;1.318;103.762;2023-03-15T01:48:12;26.00;56.60
27781;DHT22;15167;1.318;103.762;2023-03-15T01:50:39;26.20;44.70
27781;DHT22;15167;1.318;103.762;2023-03-15T01:53:05;26.30;21.30
27781;DHT22;15167;1.318;103.762;2023-03-15T01:55:31;26.40;3.20
27781;DHT22;15167;1.318;103.762;2023-03-15T01:57:57;26.40;1.00
27781;DHT22;15167;1.318;103.762;2023-03-15T02:00:24;26.40;1.00
27781;DHT22;15167;1.318;103.762;2023-03-15T02:02:53;26.50;1.00
27781;DHT22;15167;1.318;103.762;2023-03-15T02:05:21;26.60;1.00
27781;DHT22;15167;1.318;103.762;2023-03-15T02:07:48;26.70;1.00
27781;DHT22;15167;1.318;103.762;2023-03-15T02:10:16;26.80;1.00
27781;DHT22;15167;1.318;103.762;2023-03-15T02:12:47;26.80;1.00
27781;DHT22;15167;1.318;103.762;2023-03-15T02:15:15;26.90;1.00
27781;DHT22;15167;1.318;103.762;2023-03-15T02:17:43;26.90;99.90
27781;DHT22;15167;1.318;103.762;2023-03-15T02:22:56;26.90;99.90
27781;DHT22;15167;1.318;103.762;2023-03-15T02:25:30;26.80;1.00
27781;DHT22;15167;1.318;103.762;2023-03-15T02:27:58;26.70;1.00
27781;DHT22;15167;1.318;103.762;2023-03-15T02:30:25;26.60;1.00
27781;DHT22;15167;1.318;103.762;2023-03-15T02:32:52;26.60;1.00
27781;DHT22;15167;1.318;103.762;2023-03-15T02:35:21;26.60;1.00
27781;DHT22;15167;1.318;103.762;2023-03-15T02:37:48;26.60;1.00
27781;DHT22;15167;1.318;103.762;2023-03-15T02:40:18;26.60;1.00
27781;DHT22;15167;1.318;103.762;2023-03-15T02:42:45;26.60;1.00
27781;DHT22;15167;1.318;103.762;2023-03-15T02:45:11;26.60;1.00
27781;DHT22;15167;1.318;103.762;2023-03-15T02:47:38;26.70;1.00
27781;DHT22;15167;1.318;103.762;2023-03-15T02:50:04;26.90;1.00
27781;DHT22;15167;1.318;103.762;2023-03-15T02:52:32;27.10;1.00
27781;DHT22;15167;1.318;103.762;2023-03-15T02:54:58;27.30;99.90
27781;DHT22;15167;1.318;103.762;2023-03-15T02:57:26;27.30;99.90
27781;DHT22;15167;1.318;103.762;2023-03-15T02:59:52;27.50;99.90
27781;DHT22;15167;1.318;103.762;2023-03-15T03:02:20;27.50;99.90
27781;DHT22;15167;1.318;103.762;2023-03-15T03:04:46;27.50;99.90
27781;DHT22;15167;1.318;103.762;2023-03-15T03:07:12;27.70;99.90
27781;DHT22;15167;1.318;103.762;2023-03-15T03:09:38;27.70;99.90
27781;DHT22;15167;1.318;103.762;2023-03-15T03:12:04;27.70;99.90
27781;DHT22;15167;1.318;103.762;2023-03-15T03:14:31;27.80;99.90
27781;DHT22;15167;1.318;103.762;2023-03-15T03:16:57;27.80;99.90
27781;DHT22;15167;1.318;103.762;2023-03-15T03:19:23;27.60;99.90
27781;DHT22;15167;1.318;103.762;2023-03-15T03:21:53;27.30;99.90
27781;DHT22;15167;1.318;103.762;2023-03-15T03:24:19;27.10;99.90
27781;DHT22;15167;1.318;103.762;2023-03-15T03:26:45;27.10;99.90
27781;DHT22;15167;1.318;103.762;2023-03-15T03:29:12;27.10;99.90
27781;DHT22;15167;1.318;103.762;2023-03-15T03:31:41;27.20;99.90
27781;DHT22;15167;1.318;103.762;2023-03-15T03:34:07;27.30;99.90
27781;DHT22;15167;1.318;103.762;2023-03-15T03:36:35;27.40;99.90
27781;DHT22;15167;1.318;103.762;2023-03-15T03:39:01;27.30;99.90
27781;DHT22;15167;1.318;103.762;2023-03-15T03:41:28;27.50;99.90
27781;DHT22;15167;1.318;103.762;2023-03-15T03:43:54;27.60;99.90
27781;DHT22;15167;1.318;103.762;2023-03-15T03:46:20;27.70;99.30
27781;DHT22;15167;1.318;103.762;2023-03-15T03:48:46;27.80;40.80
27781;DHT22;15167;1.318;103.762;2023-03-15T03:51:12;27.70;74.10
27781;DHT22;15167;1.318;103.762;2023-03-15T03:53:38;27.60;99.90
27781;DHT22;15167;1.318;103.762;2023-03-15T03:56:05;27.60;99.90
27781;DHT22;15167;1.318;103.762;2023-03-15T03:58:31;27.60;99.90
27781;DHT22;15167;1.318;103.762;2023-03-15T04:00:57;27.70;99.90
27781;DHT22;15167;1.318;103.762;2023-03-15T04:03:23;27.80;99.90
27781;DHT22;15167;1.318;103.762;2023-03-15T04:05:53;27.70;99.90
27781;DHT22;15167;1.318;103.762;2023-03-15T04:08:20;27.70;99.90
27781;DHT22;15167;1.318;103.762;2023-03-15T04:10:53;27.90;58.00
27781;DHT22;15167;1.318;103.762;2023-03-15T04:13:20;28.10;10.00
27781;DHT22;15167;1.318;103.762;2023-03-15T04:15:46;28.30;1.00
27781;DHT22;15167;1.318;103.762;2023-03-15T04:18:13;28.50;99.90
27781;DHT22;15167;1.318;103.762;2023-03-15T04:20:39;28.70;99.90
27781;DHT22;15167;1.318;103.762;2023-03-15T04:23:14;28.80;99.90
27781;DHT22;15167;1.318;103.762;2023-03-15T04:25:41;28.90;99.90
27781;DHT22;15167;1.318;103.762;2023-03-15T04:28:07;28.70;1.00
27781;DHT22;15167;1.318;103.762;2023-03-15T04:30:35;28.50;47.20
27781;DHT22;15167;1.318;103.762;2023-03-15T04:33:02;28.50;99.90
27781;DHT22;15167;1.318;103.762;2023-03-15T04:35:29;28.60;99.90
27781;DHT22;15167;1.318;103.762;2023-03-15T04:37:55;28.70;48.70
27781;DHT22;15167;1.318;103.762;2023-03-15T04:40:22;28.90;1.00
27781;DHT22;15167;1.318;103.762;2023-03-15T04:42:54;29.00;6.50
27781;DHT22;15167;1.318;103.762;2023-03-15T04:45:23;29.00;99.90
27781;DHT22;15167;1.318;103.762;2023-03-15T04:47:50;28.90;43.50
27781;DHT22;15167;1.318;103.762;2023-03-15T04:50:17;28.80;99.90
27781;DHT22;15167;1.318;103.762;2023-03-15T04:52:43;28.60;99.90
27781;DHT22;15167;1.318;103.762;2023-03-15T04:55:09;28.60;99.90
27781;DHT22;15167;1.318;103.762;2023-03-15T04:57:35;28.60;99.90
27781;DHT22;15167;1.318;103.762;2023-03-15T05:00:02;28.80;99.90
27781;DHT22;15167;1.318;103.762;2023-03-15T05:02:32;29.00;99.90
27781;DHT22;15167;1.318;103.762;2023-03-15T05:04:58;29.10;93.00
27781;DHT22;15167;1.318;103.762;2023-03-15T05:07:24;29.10;99.90
27781;DHT22;15167;1.318;103.762;2023-03-15T05:09:51;29.20;97.70
27781;DHT22;15167;1.318;103.762;2023-03-15T05:12:17;29.30;13.00
27781;DHT22;15167;1.318;103.762;2023-03-15T05:14:43;29.50;1.00
27781;DHT22;15167;1.318;103.762;2023-03-15T05:17:09;29.70;99.90
27781;DHT22;15167;1.318;103.762;2023-03-15T05:19:36;29.70;99.90
27781;DHT22;15167;1.318;103.762;2023-03-15T05:22:02;29.50;99.90
27781;DHT22;15167;1.318;103.762;2023-03-15T05:24:29;29.50;1.00
27781;DHT22;15167;1.318;103.762;2023-03-15T05:26:55;29.50;99.90
27781;DHT22;15167;1.318;103.762;2023-03-15T05:29:21;29.30;1.00
27781;DHT22;15167;1.318;103.762;2023-03-15T05:31:48;29.40;99.90
27781;DHT22;15167;1.318;103.762;2023-03-15T05:34:14;29.40;99.90
27781;DHT22;15167;1.318;103.762;2023-03-15T05:36:40;29.50;99.90
27781;DHT22;15167;1.318;103.762;2023-03-15T05:39:07;29.70;99.90
27781;DHT22;15167;1.318;103.762;2023-03-15T05:41:33;29.80;99.90
27781;DHT22;15167;1.318;103.762;2023-03-15T05:43:59;29.80;99.90
27781;DHT22;15167;1.318;103.762;2023-03-15T05:46:25;29.80;1.00
27781;DHT22;15167;1.318;103.762;2023-03-15T05:48:52;29.70;1.00
27781;DHT22;15167;1.318;103.762;2023-03-15T05:51:18;29.70;1.00
27781;DHT22;15167;1.318;103.762;2023-03-15T05:53:44;29.70;99.90
27781;DHT22;15167;1.318;103.762;2023-03-15T05:56:11;30.00;1.00
27781;DHT22;15167;1.318;103.762;2023-03-15T05:58:37;30.00;99.90
27781;DHT22;15167;1.318;103.762;2023-03-15T06:01:03;29.80;99.90
27781;DHT22;15167;1.318;103.762;2023-03-15T06:03:30;29.90;1.00
27781;DHT22;15167;1.318;103.762;2023-03-15T06:05:57;30.20;99.90
27781;DHT22;15167;1.318;103.762;2023-03-15T06:08:23;30.20;86.20
27781;DHT22;15167;1.318;103.762;2023-03-15T06:10:49;30.20;99.90
27781;DHT22;15167;1.318;103.762;2023-03-15T06:13:16;30.60;1.00
27781;DHT22;15167;1.318;103.762;2023-03-15T06:15:42;30.80;1.00
27781;DHT22;15167;1.318;103.762;2023-03-15T06:18:08;31.00;95.60
27781;DHT22;15167;1.318;103.762;2023-03-15T06:20:34;31.00;99.90
27781;DHT22;15167;1.318;103.762;2023-03-15T06:23:00;30.90;99.90
27781;DHT22;15167;1.318;103.762;2023-03-15T06:25:26;30.80;99.90
27781;DHT22;15167;1.318;103.762;2023-03-15T06:27:52;30.90;1.00
27781;DHT22;15167;1.318;103.762;2023-03-15T06:30:18;30.80;99.90
27781;DHT22;15167;1.318;103.762;2023-03-15T06:32:45;30.80;99.90
27781;DHT22;15167;1.318;103.762;2023-03-15T06:35:11;30.90;99.90
27781;DHT22;15167;1.318;103.762;2023-03-15T06:37:37;30.60;99.90
27781;DHT22;15167;1.318;103.762;2023-03-15T06:40:06;30.20;1.00
27781;DHT22;15167;1.318;103.762;2023-03-15T06:42:33;29.90;1.00
27781;DHT22;15167;1.318;103.762;2023-03-15T06:44:59;29.80;1.00
27781;DHT22;15167;1.318;103.762;2023-03-15T06:47:26;29.80;99.90
27781;DHT22;15167;1.318;103.762;2023-03-15T06:49:52;29.60;1.00
27781;DHT22;15167;1.318;103.762;2023-03-15T06:52:18;29.50;1.00
27781;DHT22;15167;1.318;103.762;2023-03-15T06:54:45;29.40;99.90
27781;DHT22;15167;1.318;103.762;2023-03-15T06:57:11;29.20;99.90
27781;DHT22;15167;1.318;103.762;2023-03-15T06:59:37;29.20;99.90
27781;DHT22;15167;1.318;103.762;2023-03-15T07:02:03;29.10;99.90
27781;DHT22;15167;1.318;103.762;2023-03-15T07:04:29;29.00;1.00
27781;DHT22;15167;1.318;103.762;2023-03-15T07:06:55;29.20;1.00
27781;DHT22;15167;1.318;103.762;2023-03-15T07:09:21;29.20;1.00
27781;DHT22;15167;1.318;103.762;2023-03-15T07:11:48;29.30;1.00
27781;DHT22;15167;1.318;103.762;2023-03-15T07:14:14;29.40;1.00
27781;DHT22;15167;1.318;103.762;2023-03-15T07:16:40;29.40;1.00
27781;DHT22;15167;1.318;103.762;2023-03-15T07:19:06;29.40;1.00
27781;DHT22;15167;1.318;103.762;2023-03-15T07:21:32;29.50;1.00
27781;DHT22;15167;1.318;103.762;2023-03-15T07:23:58;29.70;99.90
27781;DHT22;15167;1.318;103.762;2023-03-15T07:26:24;29.70;99.90
27781;DHT22;15167;1.318;103.762;2023-03-15T07:28:50;29.80;99.90
27781;DHT22;15167;1.318;103.762;2023-03-15T07:31:16;29.90;99.90
27781;DHT22;15167;1.318;103.762;2023-03-15T07:33:43;29.90;99.90
27781;DHT22;15167;1.318;103.762;2023-03-15T07:36:09;30.00;99.90
27781;DHT22;15167;1.318;103.762;2023-03-15T07:38:35;30.40;99.90
27781;DHT22;15167;1.318;103.762;2023-03-15T07:41:02;30.60;1.00
27781;DHT22;15167;1.318;103.762;2023-03-15T07:43:28;30.70;99.90
27781;DHT22;15167;1.318;103.762;2023-03-15T07:45:55;30.90;99.90
27781;DHT22;15167;1.318;103.762;2023-03-15T07:48:21;30.90;99.90
27781;DHT22;15167;1.318;103.762;2023-03-15T07:50:47;30.80;1.00
27781;DHT22;15167;1.318;103.762;2023-03-15T07:53:13;30.40;99.90
27781;DHT22;15167;1.318;103.762;2023-03-15T07:55:39;30.20;99.90
27781;DHT22;15167;1.318;103.762;2023-03-15T07:58:05;30.10;1.00
27781;DHT22;15167;1.318;103.762;2023-03-15T08:00:31;29.70;99.90
27781;DHT22;15167;1.318;103.762;2023-03-15T08:02:58;29.30;1.00
27781;DHT22;15167;1.318;103.762;2023-03-15T08:05:24;29.50;1.00
27781;DHT22;15167;1.318;103.762;2023-03-15T08:07:50;29.70;99.90
27781;DHT22;15167;1.318;103.762;2023-03-15T08:10:16;30.00;99.90
27781;DHT22;15167;1.318;103.762;2023-03-15T08:12:43;30.20;99.90
27781;DHT22;15167;1.318;103.762;2023-03-15T08:17:36;30.00;99.90
27781;DHT22;15167;1.318;103.762;2023-03-15T08:20:02;30.00;99.90
27781;DHT22;15167;1.318;103.762;2023-03-15T08:22:29;30.30;99.90
27781;DHT22;15167;1.318;103.762;2023-03-15T08:24:55;30.30;22.60
27781;DHT22;15167;1.318;103.762;2023-03-15T08:27:23;30.30;1.00
27781;DHT22;15167;1.318;103.762;2023-03-15T08:29:49;30.10;99.90
27781;DHT22;15167;1.318;103.762;2023-03-15T08:32:16;29.90;99.90
27781;DHT22;15167;1.318;103.762;2023-03-15T08:34:43;29.80;1.00
27781;DHT22;15167;1.318;103.762;2023-03-15T08:37:09;29.90;99.90
27781;DHT22;15167;1.318;103.762;2023-03-15T08:39:35;30.00;99.90
27781;DHT22;15167;1.318;103.762;2023-03-15T08:42:01;30.10;99.90
27781;DHT22;15167;1.318;103.762;2023-03-15T08:44:27;30.00;99.90
27781;DHT22;15167;1.318;103.762;2023-03-15T08:46:53;29.90;99.90
27781;DHT22;15167;1.318;103.762;2023-03-15T08:49:19;29.90;99.90
27781;DHT22;15167;1.318;103.762;2023-03-15T08:51:46;29.90;99.90
27781;DHT22;15167;1.318;103.762;2023-03-15T08:54:12;29.70;99.90
27781;DHT22;15167;1.318;103.762;2023-03-15T08:56:40;29.70;99.90
27781;DHT22;15167;1.318;103.762;2023-03-15T08:59:07;29.80;99.90
27781;DHT22;15167;1.318;103.762;2023-03-15T09:01:33;29.50;1.00
27781;DHT22;15167;1.318;103.762;2023-03-15T09:03:59;29.50;1.00
27781;DHT22;15167;1.318;103.762;2023-03-15T09:06:26;29.40;1.00
27781;DHT22;15167;1.318;103.762;2023-03-15T09:08:53;29.40;37.90
27781;DHT22;15167;1.318;103.762;2023-03-15T09:11:20;29.50;29.90
27781;DHT22;15167;1.318;103.762;2023-03-15T09:13:47;29.50;1.00
27781;DHT22;15167;1.318;103.762;2023-03-15T09:16:13;29.40;1.00
27781;DHT22;15167;1.318;103.762;2023-03-15T09:18:39;29.30;24.60
27781;DHT22;15167;1.318;103.762;2023-03-15T09:21:06;29.30;1.00
27781;DHT22;15167;1.318;103.762;2023-03-15T09:23:32;29.30;18.90
27781;DHT22;15167;1.318;103.762;2023-03-15T09:25:58;29.20;99.90
27781;DHT22;15167;1.318;103.762;2023-03-15T09:28:24;29.20;99.90
27781;DHT22;15167;1.318;103.762;2023-03-15T09:30:51;29.30;95.20
27781;DHT22;15167;1.318;103.762;2023-03-15T09:33:17;29.30;99.10
27781;DHT22;15167;1.318;103.762;2023-03-15T09:35:43;29.40;96.90
27781;DHT22;15167;1.318;103.762;2023-03-15T09:38:09;29.20;99.90
27781;DHT22;15167;1.318;103.762;2023-03-15T09:40:40;29.10;99.90
27781;DHT22;15167;1.318;103.762;2023-03-15T09:48:15;29.10;99.90
27781;DHT22;15167;1.318;103.762;2023-03-15T09:50:47;29.20;99.90
27781;DHT22;15167;1.318;103.762;2023-03-15T09:55:40;29.00;99.90
27781;DHT22;15167;1.318;103.762;2023-03-15T09:58:27;29.00;99.90
27781;DHT22;15167;1.318;103.762;2023-03-15T10:01:00;28.90;99.90
27781;DHT22;15167;1.318;103.762;2023-03-15T10:05:58;28.80;99.90
27781;DHT22;15167;1.318;103.762;2023-03-15T10:08:26;28.80;99.90
27781;DHT22;15167;1.318;103.762;2023-03-15T10:15:57;28.60;99.90
27781;DHT22;15167;1.318;103.762;2023-03-15T10:18:28;28.50;99.90
27781;DHT22;15167;1.318;103.762;2023-03-15T10:20:59;28.40;1.00
27781;DHT22;15167;1.318;103.762;2023-03-15T10:25:54;28.40;99.90
27781;DHT22;15167;1.318;103.762;2023-03-15T10:28:23;28.40;99.90
27781;DHT22;15167;1.318;103.762;2023-03-15T10:30:50;28.30;99.90
27781;DHT22;15167;1.318;103.762;2023-03-15T10:33:27;28.20;99.90
27781;DHT22;15167;1.318;103.762;2023-03-15T10:35:54;28.20;99.90
27781;DHT22;15167;1.318;103.762;2023-03-15T10:38:21;28.20;99.90
27781;DHT22;15167;1.318;103.762;2023-03-15T10:40:51;28.20;99.90
27781;DHT22;15167;1.318;103.762;2023-03-15T10:48:26;28.00;99.90
27781;DHT22;15167;1.318;103.762;2023-03-15T10:50:53;28.00;1.00
27781;DHT22;15167;1.318;103.762;2023-03-15T10:53:19;27.90;1.00
27781;DHT22;15167;1.318;103.762;2023-03-15T10:55:47;27.80;1.00
27781;DHT22;15167;1.318;103.762;2023-03-15T10:58:37;27.80;1.00
27781;DHT22;15167;1.318;103.762;2023-03-15T11:01:05;27.70;52.50
27781;DHT22;15167;1.318;103.762;2023-03-15T11:03:32;27.70;80.30
27781;DHT22;15167;1.318;103.762;2023-03-15T11:05:59;27.60;99.90
27781;DHT22;15167;1.318;103.762;2023-03-15T11:08:39;27.60;99.90
27781;DHT22;15167;1.318;103.762;2023-03-15T11:11:06;27.60;99.90
27781;DHT22;15167;1.318;103.762;2023-03-15T11:13:34;27.60;99.90
27781;DHT22;15167;1.318;103.762;2023-03-15T11:19:01;27.50;99.90
27781;DHT22;15167;1.318;103.762;2023-03-15T11:21:24;27.40;99.90
27781;DHT22;15167;1.318;103.762;2023-03-15T11:23:53;27.40;99.90
27781;DHT22;15167;1.318;103.762;2023-03-15T11:26:21;27.30;99.90
27781;DHT22;15167;1.318;103.762;2023-03-15T11:28:49;27.30;99.90
27781;DHT22;15167;1.318;103.762;2023-03-15T11:31:20;27.30;99.90
27781;DHT22;15167;1.318;103.762;2023-03-15T11:34:05;27.30;99.90
27781;DHT22;15167;1.318;103.762;2023-03-15T11:36:33;27.20;99.90
27781;DHT22;15167;1.318;103.762;2023-03-15T11:39:02;27.20;99.90
27781;DHT22;15167;1.318;103.762;2023-03-15T11:42:12;27.20;99.90
27781;DHT22;15167;1.318;103.762;2023-03-15T11:46:56;27.20;99.90
27781;DHT22;15167;1.318;103.762;2023-03-15T11:51:50;27.10;99.90
27781;DHT22;15167;1.318;103.762;2023-03-15T11:54:19;27.10;99.90
27781;DHT22;15167;1.318;103.762;2023-03-15T11:56:48;27.10;99.90
27781;DHT22;15167;1.318;103.762;2023-03-15T12:01:47;27.10;99.90
27781;DHT22;15167;1.318;103.762;2023-03-15T12:06:50;27.00;99.90
27781;DHT22;15167;1.318;103.762;2023-03-15T12:09:40;27.00;99.90
27781;DHT22;15167;1.318;103.762;2023-03-15T12:12:50;27.00;99.90
27781;DHT22;15167;1.318;103.762;2023-03-15T12:17:37;27.00;99.90
27781;DHT22;15167;1.318;103.762;2023-03-15T12:20:27;27.00;1.00
27781;DHT22;15167;1.318;103.762;2023-03-15T12:22:52;27.00;1.00
27781;DHT22;15167;1.318;103.762;2023-03-15T12:25:20;27.00;1.00
27781;DHT22;15167;1.318;103.762;2023-03-15T12:27:51;27.00;1.00
27781;DHT22;15167;1.318;103.762;2023-03-15T12:30:20;26.90;1.00
27781;DHT22;15167;1.318;103.762;2023-03-15T12:32:48;26.80;1.00
27781;DHT22;15167;1.318;103.762;2023-03-15T12:35:16;26.80;1.00
27781;DHT22;15167;1.318;103.762;2023-03-15T12:37:45;26.80;1.00
27781;DHT22;15167;1.318;103.762;2023-03-15T12:48:28;26.80;1.00
27781;DHT22;15167;1.318;103.762;2023-03-15T12:58:42;26.90;1.00
27781;DHT22;15167;1.318;103.762;2023-03-15T13:01:09;26.90;1.00
27781;DHT22;15167;1.318;103.762;2023-03-15T13:03:40;26.90;1.00
27781;DHT22;15167;1.318;103.762;2023-03-15T13:06:10;26.90;1.00
27781;DHT22;15167;1.318;103.762;2023-03-15T13:19:13;26.50;28.60
27781;DHT22;15167;1.318;103.762;2023-03-15T13:25:13;26.50;57.50
27781;DHT22;15167;1.318;103.762;2023-03-15T13:27:17;26.40;68.20
27781;DHT22;15167;1.318;103.762;2023-03-15T13:29:47;26.40;72.10
27781;DHT22;15167;1.318;103.762;2023-03-15T13:32:15;26.40;82.50
27781;DHT22;15167;1.318;103.762;2023-03-15T13:34:43;26.40;82.00
27781;DHT22;15167;1.318;103.762;2023-03-15T13:37:13;26.40;71.10
27781;DHT22;15167;1.318;103.762;2023-03-15T13:39:50;26.40;80.10
27781;DHT22;15167;1.318;103.762;2023-03-15T13:42:18;26.40;84.00
27781;DHT22;15167;1.318;103.762;2023-03-15T13:44:44;26.40;90.20
27781;DHT22;15167;1.318;103.762;2023-03-15T13:47:19;26.30;85.00
27781;DHT22;15167;1.318;103.762;2023-03-15T13:49:51;26.40;91.50
27781;DHT22;15167;1.318;103.762;2023-03-15T13:52:17;26.40;90.90
27781;DHT22;15167;1.318;103.762;2023-03-15T13:54:43;26.40;94.10
27781;DHT22;15167;1.318;103.762;2023-03-15T13:57:14;26.40;90.30
27781;DHT22;15167;1.318;103.762;2023-03-15T13:59:59;26.30;93.70
27781;DHT22;15167;1.318;103.762;2023-03-15T14:02:34;26.30;99.90
27781;DHT22;15167;1.318;103.762;2023-03-15T14:05:04;26.20;99.90
27781;DHT22;15167;1.318;103.762;2023-03-15T14:07:40;26.20;99.90
27781;DHT22;15167;1.318;103.762;2023-03-15T14:12:44;26.20;99.90
27781;DHT22;15167;1.318;103.762;2023-03-15T14:15:18;26.20;99.90
27781;DHT22;15167;1.318;103.762;2023-03-15T14:18:01;26.20;99.90
27781;DHT22;15167;1.318;103.762;2023-03-15T14:20:28;26.00;99.90
27781;DHT22;15167;1.318;103.762;2023-03-15T14:22:59;26.10;99.90
27781;DHT22;15167;1.318;103.762;2023-03-15T14:25:25;26.00;99.90
27781;DHT22;15167;1.318;103.762;2023-03-15T14:27:51;26.00;99.90
27781;DHT22;15167;1.318;103.762;2023-03-15T14:30:21;26.00;99.90
27781;DHT22;15167;1.318;103.762;2023-03-15T14:32:52;25.90;99.90
27781;DHT22;15167;1.318;103.762;2023-03-15T14:37:58;25.80;99.90
27781;DHT22;15167;1.318;103.762;2023-03-15T14:40:29;25.80;99.90
27781;DHT22;15167;1.318;103.762;2023-03-15T14:42:59;25.70;99.90
27781;DHT22;15167;1.318;103.762;2023-03-15T14:45:26;25.80;99.90
27781;DHT22;15167;1.318;103.762;2023-03-15T14:47:56;25.70;99.90
27781;DHT22;15167;1.318;103.762;2023-03-15T14:50:28;25.70;99.90
27781;DHT22;15167;1.318;103.762;2023-03-15T14:52:56;25.70;99.90
27781;DHT22;15167;1.318;103.762;2023-03-15T14:55:26;25.70;99.90
27781;DHT22;15167;1.318;103.762;2023-03-15T14:57:53;25.70;99.90
27781;DHT22;15167;1.318;103.762;2023-03-15T15:00:20;25.60;99.90
27781;DHT22;15167;1.318;103.762;2023-03-15T15:02:49;25.60;99.90
27781;DHT22;15167;1.318;103.762;2023-03-15T15:05:18;25.60;99.90
27781;DHT22;15167;1.318;103.762;2023-03-15T15:07:47;25.60;99.90
27781;DHT22;15167;1.318;103.762;2023-03-15T15:10:13;25.60;99.90
27781;DHT22;15167;1.318;103.762;2023-03-15T15:12:39;25.50;99.90
27781;DHT22;15167;1.318;103.762;2023-03-15T15:15:15;25.50;99.90
27781;DHT22;15167;1.318;103.762;2023-03-15T15:17:42;25.50;99.90
27781;DHT22;15167;1.318;103.762;2023-03-15T15:20:08;25.50;99.90
27781;DHT22;15167;1.318;103.762;2023-03-15T15:22:37;25.50;99.90
27781;DHT22;15167;1.318;103.762;2023-03-15T15:25:13;25.50;99.90
27781;DHT22;15167;1.318;103.762;2023-03-15T15:27:40;25.50;99.90
27781;DHT22;15167;1.318;103.762;2023-03-15T15:30:09;25.50;99.90
27781;DHT22;15167;1.318;103.762;2023-03-15T15:32:35;25.50;99.90
27781;DHT22;15167;1.318;103.762;2023-03-15T15:35:01;25.40;99.90
27781;DHT22;15167;1.318;103.762;2023-03-15T15:37:28;25.40;99.90
27781;DHT22;15167;1.318;103.762;2023-03-15T15:39:54;25.40;99.90
27781;DHT22;15167;1.318;103.762;2023-03-15T15:42:20;25.30;99.90
27781;DHT22;15167;1.318;103.762;2023-03-15T15:44:47;25.40;99.90
27781;DHT22;15167;1.318;103.762;2023-03-15T15:47:13;25.30;99.90
27781;DHT22;15167;1.318;103.762;2023-03-15T15:49:39;25.30;99.90
27781;DHT22;15167;1.318;103.762;2023-03-15T15:52:07;25.40;99.90
27781;DHT22;15167;1.318;103.762;2023-03-15T15:54:34;25.40;99.90
27781;DHT22;15167;1.318;103.762;2023-03-15T15:57:00;25.40;99.90
27781;DHT22;15167;1.318;103.762;2023-03-15T15:59:27;25.30;99.90
27781;DHT22;15167;1.318;103.762;2023-03-15T16:01:54;25.30;99.90
27781;DHT22;15167;1.318;103.762;2023-03-15T16:04:20;25.30;99.90
27781;DHT22;15167;1.318;103.762;2023-03-15T16:06:50;25.20;99.90
27781;DHT22;15167;1.318;103.762;2023-03-15T16:09:16;25.20;99.90
27781;DHT22;15167;1.318;103.762;2023-03-15T16:11:43;25.20;99.90
27781;DHT22;15167;1.318;103.762;2023-03-15T16:14:10;25.20;99.90
27781;DHT22;15167;1.318;103.762;2023-03-15T16:16:36;25.20;99.90
27781;DHT22;15167;1.318;103.762;2023-03-15T16:19:02;25.20;99.90
27781;DHT22;15167;1.318;103.762;2023-03-15T16:21:38;25.20;99.90
27781;DHT22;15167;1.318;103.762;2023-03-15T16:26:38;25.10;99.90
27781;DHT22;15167;1.318;103.762;2023-03-15T16:29:12;25.10;99.90
27781;DHT22;15167;1.318;103.762;2023-03-15T16:31:40;25.10;99.90
27781;DHT22;15167;1.318;103.762;2023-03-15T16:34:10;25.10;99.90
27781;DHT22;15167;1.318;103.762;2023-03-15T16:36:36;25.10;99.90
27781;DHT22;15167;1.318;103.762;2023-03-15T16:39:02;25.00;99.90
27781;DHT22;15167;1.318;103.762;2023-03-15T16:41:29;25.10;99.90
27781;DHT22;15167;1.318;103.762;2023-03-15T16:43:55;25.00;99.90
27781;DHT22;15167;1.318;103.762;2023-03-15T16:46:21;25.00;99.90
27781;DHT22;15167;1.318;103.762;2023-03-15T16:48:47;25.00;99.90